createdAt,value
2019-05-19T00:00:40.837Z,12.41
2019-05-19T00:03:11.130Z,12.40
2019-05-19T00:05:42.437Z,12.42
2019-05-19T00:08:13.985Z,12.43
2019-05-19T00:10:45.256Z,12.40
2019-05-19T00:13:16.227Z,12.37
2019-05-19T00:15:47.459Z,12.32
2019-05-19T00:18:18.433Z,12.27
2019-05-19T00:20:49.661Z,12.16
2019-05-19T00:23:20.571Z,12.02
2019-05-19T00:25:51.658Z,11.91
2019-05-19T00:28:22.588Z,11.85
2019-05-19T00:30:53.634Z,11.85
2019-05-19T00:33:24.914Z,11.74
2019-05-19T00:35:55.029Z,11.62
2019-05-19T00:38:26.248Z,11.55
2019-05-19T00:40:57.331Z,11.44
2019-05-19T00:43:28.611Z,11.34
2019-05-19T00:45:59.760Z,11.25
2019-05-19T00:48:31.009Z,11.17
2019-05-19T00:51:02.125Z,11.06
2019-05-19T00:53:33.464Z,10.97
2019-05-19T00:56:04.484Z,10.90
2019-05-19T00:58:35.997Z,10.83
2019-05-19T01:01:06.954Z,10.79
2019-05-19T01:03:38.227Z,10.73
2019-05-19T01:06:09.431Z,10.66
2019-05-19T01:08:39.663Z,10.62
2019-05-19T01:11:10.901Z,10.57
2019-05-19T01:13:41.942Z,10.53
2019-05-19T01:16:13.228Z,10.52
2019-05-19T01:18:44.168Z,10.51
2019-05-19T01:21:16.271Z,10.58
2019-05-19T01:23:47.253Z,10.53
2019-05-19T01:26:18.319Z,10.50
2019-05-19T01:28:49.377Z,10.44
2019-05-19T01:31:20.676Z,10.42
2019-05-19T01:33:51.578Z,10.39
2019-05-19T01:36:22.989Z,10.33
2019-05-19T01:38:53.977Z,10.26
2019-05-19T01:41:25.309Z,10.19
2019-05-19T01:43:56.369Z,10.15
2019-05-19T01:46:26.472Z,10.07
2019-05-19T01:48:57.855Z,9.99
2019-05-19T01:51:28.755Z,9.94
2019-05-19T01:53:59.835Z,9.94
2019-05-19T01:56:30.885Z,9.97
2019-05-19T01:59:02.145Z,9.95
2019-05-19T02:01:33.143Z,9.92
2019-05-19T02:04:04.538Z,9.88
2019-05-19T02:06:35.494Z,9.82
2019-05-19T02:09:07.541Z,9.77
2019-05-19T02:11:38.508Z,9.70
2019-05-19T02:14:09.756Z,9.65
2019-05-19T02:16:40.734Z,9.56
2019-05-19T02:19:10.928Z,9.50
2019-05-19T02:21:42.032Z,9.47
2019-05-19T02:24:13.064Z,9.42
2019-05-19T02:26:44.209Z,9.34
2019-05-19T02:29:15.192Z,9.32
2019-05-19T02:31:46.369Z,9.27
2019-05-19T02:34:17.421Z,9.27
2019-05-19T02:36:48.582Z,9.22
2019-05-19T02:39:19.641Z,9.18
2019-05-19T02:41:52.590Z,9.17
2019-05-19T02:44:24.883Z,9.16
2019-05-19T02:46:57.083Z,9.10
2019-05-19T02:49:30.486Z,9.04
2019-05-19T02:52:03.427Z,8.98
2019-05-19T02:54:35.741Z,8.95
2019-05-19T02:57:06.870Z,8.91
2019-05-19T02:59:38.386Z,8.95
2019-05-19T03:02:13.773Z,8.98
2019-05-19T03:04:44.826Z,8.94
2019-05-19T03:07:15.771Z,8.85
2019-05-19T03:09:46.935Z,8.82
2019-05-19T03:12:17.978Z,8.86
2019-05-19T03:14:49.161Z,8.81
2019-05-19T03:17:20.130Z,8.77
2019-05-19T03:19:51.290Z,8.72
2019-05-19T03:22:22.213Z,8.75
2019-05-19T03:24:52.353Z,8.76
2019-05-19T03:27:23.480Z,8.78
2019-05-19T03:29:56.161Z,8.81
2019-05-19T03:32:37.742Z,8.77
2019-05-19T03:35:09.282Z,8.70
2019-05-19T03:37:40.506Z,8.69
2019-05-19T03:40:13.221Z,8.68
2019-05-19T03:42:44.455Z,8.73
2019-05-19T03:45:15.428Z,8.76
2019-05-19T03:47:46.751Z,8.82
2019-05-19T03:50:17.724Z,8.83
2019-05-19T03:52:48.973Z,8.89
2019-05-19T03:55:19.937Z,8.95
2019-05-19T03:57:51.088Z,9.00
2019-05-19T04:00:22.321Z,9.06
2019-05-19T04:02:52.377Z,9.15
2019-05-19T04:05:23.528Z,9.24
2019-05-19T04:07:54.512Z,9.32
2019-05-19T04:10:26.237Z,9.43
2019-05-19T04:12:57.101Z,9.49
2019-05-19T04:15:28.456Z,9.56
2019-05-19T04:17:59.352Z,9.60
2019-05-19T04:20:30.532Z,9.64
2019-05-19T04:23:01.435Z,9.66
2019-05-19T04:25:32.781Z,9.75
2019-05-19T04:28:03.884Z,9.89
2019-05-19T04:30:34.947Z,9.94
2019-05-19T04:33:05.837Z,10.07
2019-05-19T04:35:35.976Z,10.16
2019-05-19T04:38:07.125Z,10.27
2019-05-19T04:40:38.039Z,10.33
2019-05-19T04:43:09.354Z,10.41
2019-05-19T04:45:40.350Z,10.45
2019-05-19T04:48:11.574Z,10.47
2019-05-19T04:50:42.543Z,10.58
2019-05-19T04:53:13.633Z,10.69
2019-05-19T04:55:44.603Z,10.88
2019-05-19T04:58:15.857Z,10.97
2019-05-19T05:00:46.825Z,11.10
2019-05-19T05:03:17.978Z,11.26
2019-05-19T05:05:48.949Z,11.44
2019-05-19T05:08:29.532Z,11.59
2019-05-19T05:10:51.807Z,11.78
2019-05-19T05:13:22.732Z,11.94
2019-05-19T05:15:53.794Z,12.12
2019-05-19T05:18:24.798Z,12.31
2019-05-19T05:20:56.035Z,12.44
2019-05-19T05:23:27.014Z,12.55
2019-05-19T05:25:58.187Z,12.58
2019-05-19T05:28:29.181Z,12.64
2019-05-19T05:31:00.415Z,12.71
2019-05-19T05:33:31.326Z,12.79
2019-05-19T05:36:02.581Z,12.88
2019-05-19T05:38:33.539Z,12.98
2019-05-19T05:41:03.691Z,13.08
2019-05-19T05:43:34.888Z,13.17
2019-05-19T05:46:05.879Z,13.27
2019-05-19T05:48:37.210Z,13.40
2019-05-19T05:51:08.277Z,13.52
2019-05-19T05:53:39.546Z,13.96
2019-05-19T05:56:10.634Z,16.34
2019-05-19T05:58:41.780Z,17.75
2019-05-19T06:01:12.752Z,18.54
2019-05-19T06:03:44.140Z,18.88
2019-05-19T06:06:15.174Z,19.41
2019-05-19T06:08:46.491Z,19.75
2019-05-19T06:11:17.473Z,20.60
2019-05-19T06:13:49.547Z,20.96
2019-05-19T06:16:20.395Z,21.36
2019-05-19T06:18:51.446Z,21.19
2019-05-19T06:21:23.824Z,22.14
2019-05-19T06:23:54.709Z,23.44
2019-05-19T06:26:25.887Z,23.52
2019-05-19T06:28:56.787Z,23.38
2019-05-19T06:31:28.055Z,23.92
2019-05-19T06:33:59.052Z,23.91
2019-05-19T06:36:30.341Z,23.52
2019-05-19T06:39:01.491Z,22.45
2019-05-19T06:41:32.581Z,21.14
2019-05-19T06:44:03.773Z,21.07
2019-05-19T06:46:33.945Z,22.43
2019-05-19T06:49:05.108Z,22.74
2019-05-19T06:51:36.039Z,23.23
2019-05-19T06:54:07.371Z,24.25
2019-05-19T06:56:39.780Z,24.69
2019-05-19T06:59:11.037Z,25.54
2019-05-19T07:01:42.096Z,25.70
2019-05-19T07:04:13.323Z,26.16
2019-05-19T07:06:45.001Z,25.82
2019-05-19T07:09:16.465Z,25.66
2019-05-19T07:11:47.449Z,25.28
2019-05-19T07:14:18.714Z,24.90
2019-05-19T07:16:49.739Z,24.14
2019-05-19T07:19:19.821Z,23.65
2019-05-19T07:21:51.031Z,22.86
2019-05-19T07:24:22.056Z,22.63
2019-05-19T07:26:53.130Z,22.58
2019-05-19T07:29:24.220Z,22.76
2019-05-19T07:31:55.535Z,22.22
2019-05-19T07:34:26.523Z,22.29
2019-05-19T07:36:57.719Z,22.12
2019-05-19T07:39:28.722Z,22.01
2019-05-19T07:41:59.815Z,21.96
2019-05-19T07:44:30.794Z,21.79
2019-05-19T07:47:01.960Z,21.38
2019-05-19T07:49:33.031Z,21.53
2019-05-19T07:52:03.208Z,21.87
2019-05-19T07:54:34.287Z,22.20
2019-05-19T07:57:08.375Z,22.20
2019-05-19T07:59:39.454Z,21.89
2019-05-19T08:02:10.621Z,21.95
2019-05-19T08:04:41.969Z,21.96
2019-05-19T08:07:12.937Z,21.83
2019-05-19T08:09:44.021Z,21.58
2019-05-19T08:12:15.045Z,21.72
2019-05-19T08:14:46.185Z,22.11
2019-05-19T08:17:17.150Z,22.75
2019-05-19T08:19:48.294Z,22.93
2019-05-19T08:22:19.253Z,22.95
2019-05-19T08:24:49.340Z,22.76
2019-05-19T08:27:20.539Z,23.00
2019-05-19T08:29:51.564Z,22.72
2019-05-19T08:32:22.859Z,22.67
2019-05-19T08:34:53.829Z,22.64
2019-05-19T08:37:24.926Z,22.90
2019-05-19T08:39:55.896Z,23.31
2019-05-19T08:42:27.161Z,23.79
2019-05-19T08:44:58.212Z,23.80
2019-05-19T08:47:29.558Z,23.23
2019-05-19T08:50:00.452Z,23.50
2019-05-19T08:52:31.668Z,23.97
2019-05-19T08:55:02.732Z,24.21
2019-05-19T08:57:32.809Z,24.18
2019-05-19T09:00:05.869Z,24.15
2019-05-19T09:02:36.910Z,24.31
2019-05-19T09:05:08.182Z,24.28
2019-05-19T09:07:39.211Z,24.40
2019-05-19T09:10:10.890Z,24.90
2019-05-19T09:12:41.851Z,25.20
2019-05-19T09:15:13.275Z,24.72
2019-05-19T09:17:44.158Z,24.55
2019-05-19T09:20:15.476Z,24.58
2019-05-19T09:22:48.112Z,24.79
2019-05-19T09:25:19.359Z,25.24
2019-05-19T09:27:50.292Z,25.51
2019-05-19T09:30:20.599Z,25.50
2019-05-19T09:32:51.838Z,26.04
2019-05-19T09:35:23.128Z,26.14
2019-05-19T09:37:54.221Z,26.28
2019-05-19T09:40:26.802Z,26.42
2019-05-19T09:42:58.148Z,26.46
2019-05-19T09:45:30.492Z,26.94
2019-05-19T09:48:01.798Z,26.68
2019-05-19T09:50:32.848Z,27.19
2019-05-19T09:53:04.206Z,27.44
2019-05-19T09:55:35.262Z,27.44
2019-05-19T09:58:06.884Z,28.16
2019-05-19T10:00:38.069Z,28.59
2019-05-19T10:03:08.434Z,29.00
2019-05-19T10:05:39.828Z,28.87
2019-05-19T10:08:10.863Z,28.88
2019-05-19T10:10:48.310Z,28.88
2019-05-19T10:13:19.327Z,29.23
2019-05-19T10:15:50.659Z,27.87
2019-05-19T10:18:21.679Z,27.87
2019-05-19T10:20:53.182Z,27.82
2019-05-19T10:23:24.164Z,27.64
2019-05-19T10:25:55.479Z,27.43
2019-05-19T10:28:26.570Z,27.76
2019-05-19T10:30:58.099Z,27.76
2019-05-19T10:33:29.118Z,28.42
2019-05-19T10:36:00.438Z,29.37
2019-05-19T10:38:31.398Z,30.19
2019-05-19T10:41:01.541Z,30.20
2019-05-19T10:43:32.763Z,29.13
2019-05-19T10:46:03.816Z,29.63
2019-05-19T10:48:35.051Z,29.90
2019-05-19T10:51:06.201Z,30.15
2019-05-19T10:53:37.324Z,30.02
2019-05-19T10:56:08.555Z,30.47
2019-05-19T10:58:39.830Z,30.34
2019-05-19T11:01:10.848Z,31.06
2019-05-19T11:03:42.076Z,31.73
2019-05-19T11:06:13.286Z,31.86
2019-05-19T11:08:44.627Z,32.03
2019-05-19T11:11:15.648Z,32.56
2019-05-19T11:13:45.752Z,31.87
2019-05-19T11:16:17.105Z,30.55
2019-05-19T11:18:48.251Z,30.06
2019-05-19T11:21:19.441Z,29.47
2019-05-19T11:23:50.427Z,30.15
2019-05-19T11:26:21.662Z,29.38
2019-05-19T11:28:55.856Z,29.21
2019-05-19T11:31:27.241Z,29.86
2019-05-19T11:33:58.410Z,31.06
2019-05-19T11:36:29.624Z,30.93
2019-05-19T11:39:00.681Z,30.06
2019-05-19T11:41:31.989Z,29.35
2019-05-19T11:44:03.162Z,28.94
2019-05-19T11:46:33.506Z,28.79
2019-05-19T11:49:04.760Z,28.11
2019-05-19T11:51:35.905Z,28.32
2019-05-19T11:54:07.140Z,28.16
2019-05-19T11:56:38.292Z,27.63
2019-05-19T11:59:10.275Z,27.47
2019-05-19T12:01:41.360Z,27.03
2019-05-19T12:04:12.534Z,26.84
2019-05-19T12:06:43.634Z,26.41
2019-05-19T12:09:14.898Z,26.40
2019-05-19T12:11:45.926Z,27.17
2019-05-19T12:14:17.155Z,29.02
2019-05-19T12:16:48.262Z,29.02
2019-05-19T12:19:18.386Z,30.43
2019-05-19T12:21:49.775Z,30.43
2019-05-19T12:24:20.817Z,31.09
2019-05-19T12:26:52.219Z,31.58
2019-05-19T12:29:23.206Z,31.41
2019-05-19T12:31:54.567Z,28.75
2019-05-19T12:34:25.689Z,28.01
2019-05-19T12:36:56.962Z,27.67
2019-05-19T12:39:28.052Z,27.28
2019-05-19T12:41:59.534Z,26.84
2019-05-19T12:44:30.513Z,26.79
2019-05-19T12:47:01.656Z,26.64
2019-05-19T12:49:32.640Z,26.58
2019-05-19T12:52:02.914Z,26.71
2019-05-19T12:54:34.172Z,27.48
2019-05-19T12:57:05.264Z,28.60
2019-05-19T12:59:36.556Z,29.79
2019-05-19T13:02:07.632Z,29.79
2019-05-19T13:04:39.931Z,30.88
2019-05-19T13:07:11.137Z,31.90
2019-05-19T13:09:42.352Z,32.23
2019-05-19T13:12:13.592Z,32.00
2019-05-19T13:14:45.068Z,31.66
2019-05-19T13:17:16.212Z,32.21
2019-05-19T13:19:47.548Z,31.33
2019-05-19T13:22:18.523Z,31.67
2019-05-19T13:24:48.704Z,32.16
2019-05-19T13:27:20.009Z,32.54
2019-05-19T13:29:51.055Z,32.91
2019-05-19T13:32:22.380Z,32.16
2019-05-19T13:34:53.455Z,32.51
2019-05-19T13:37:24.944Z,33.10
2019-05-19T13:39:56.002Z,33.62
2019-05-19T13:42:27.238Z,33.76
2019-05-19T13:44:58.261Z,33.62
2019-05-19T13:47:29.503Z,32.98
2019-05-19T13:50:00.564Z,32.99
2019-05-19T13:52:31.833Z,32.06
2019-05-19T13:55:02.931Z,30.79
2019-05-19T13:57:35.735Z,30.15
2019-05-19T14:00:08.009Z,29.35
2019-05-19T14:02:39.066Z,29.04
2019-05-19T14:05:10.439Z,29.87
2019-05-19T14:07:41.491Z,30.92
2019-05-19T14:10:13.288Z,31.72
2019-05-19T14:12:44.342Z,31.89
2019-05-19T14:15:15.968Z,31.57
2019-05-19T14:17:47.145Z,30.93
2019-05-19T14:20:18.374Z,30.11
2019-05-19T14:22:49.340Z,28.86
2019-05-19T14:25:20.735Z,28.14
2019-05-19T14:27:51.741Z,27.53
2019-05-19T14:30:22.150Z,27.16
2019-05-19T14:32:53.321Z,26.79
2019-05-19T14:35:24.516Z,26.77
2019-05-19T14:37:55.954Z,27.03
2019-05-19T14:40:27.016Z,27.05
2019-05-19T14:43:00.112Z,27.05
2019-05-19T14:45:31.403Z,27.84
2019-05-19T14:48:02.797Z,27.84
2019-05-19T14:50:33.838Z,29.02
2019-05-19T14:53:05.228Z,30.07
2019-05-19T14:55:36.285Z,30.02
2019-05-19T14:58:07.663Z,30.41
2019-05-19T15:00:40.333Z,31.56
2019-05-19T15:03:10.628Z,32.01
2019-05-19T15:05:41.963Z,31.53
2019-05-19T15:08:13.074Z,30.27
2019-05-19T15:10:44.228Z,29.40
2019-05-19T15:13:15.198Z,28.84
2019-05-19T15:15:46.709Z,29.55
2019-05-19T15:18:17.673Z,29.85
2019-05-19T15:20:48.929Z,30.14
2019-05-19T15:23:20.031Z,30.37
2019-05-19T15:25:51.265Z,30.60
2019-05-19T15:28:22.355Z,30.95
2019-05-19T15:30:53.721Z,31.06
2019-05-19T15:33:24.767Z,31.29
2019-05-19T15:35:56.107Z,30.99
2019-05-19T15:38:27.331Z,30.87
2019-05-19T15:40:57.467Z,30.71
2019-05-19T15:43:28.710Z,30.62
2019-05-19T15:45:59.669Z,30.77
2019-05-19T15:48:30.975Z,30.87
2019-05-19T15:51:01.966Z,30.71
2019-05-19T15:53:33.262Z,29.71
2019-05-19T15:56:04.343Z,28.53
2019-05-19T15:58:37.673Z,28.11
2019-05-19T16:01:08.839Z,28.55
2019-05-19T16:03:40.253Z,28.85
2019-05-19T16:06:11.348Z,29.07
2019-05-19T16:08:44.029Z,29.08
2019-05-19T16:11:15.187Z,29.04
2019-05-19T16:13:45.429Z,28.76
2019-05-19T16:16:16.703Z,28.72
2019-05-19T16:18:47.785Z,28.67
2019-05-19T16:21:19.178Z,28.79
2019-05-19T16:23:50.281Z,28.87
2019-05-19T16:26:21.691Z,28.74
2019-05-19T16:28:52.757Z,27.85
2019-05-19T16:31:24.091Z,27.35
2019-05-19T16:33:55.077Z,26.90
2019-05-19T16:36:26.432Z,26.55
2019-05-19T16:38:57.490Z,26.34
2019-05-19T16:41:28.710Z,26.34
2019-05-19T16:43:59.818Z,25.92
2019-05-19T16:46:29.886Z,25.92
2019-05-19T16:49:04.066Z,25.61
2019-05-19T16:51:36.502Z,25.35
2019-05-19T16:54:10.716Z,25.35
2019-05-19T16:56:41.636Z,25.19
2019-05-19T16:59:12.870Z,24.44
2019-05-19T17:01:43.938Z,23.79
2019-05-19T17:04:17.811Z,23.13
2019-05-19T17:06:49.010Z,21.94
2019-05-19T17:09:20.512Z,20.80
2019-05-19T17:11:51.643Z,20.19
2019-05-19T17:14:22.876Z,19.28
2019-05-19T17:16:53.871Z,19.00
2019-05-19T17:19:24.070Z,18.98
2019-05-19T17:21:55.443Z,18.71
2019-05-19T17:24:26.494Z,18.20
2019-05-19T17:26:57.631Z,18.29
2019-05-19T17:29:28.594Z,18.52
2019-05-19T17:32:06.061Z,18.70
2019-05-19T17:34:32.712Z,18.84
2019-05-19T17:37:03.950Z,19.05
2019-05-19T17:39:35.109Z,19.11
2019-05-19T17:42:06.482Z,19.38
2019-05-19T17:44:37.427Z,19.57
2019-05-19T17:47:08.817Z,19.88
2019-05-19T17:49:39.830Z,20.13
2019-05-19T17:52:09.954Z,20.23
2019-05-19T17:54:41.382Z,20.22
2019-05-19T17:57:22.980Z,20.20
2019-05-19T17:59:54.570Z,20.19
2019-05-19T18:02:25.694Z,20.23
2019-05-19T18:04:56.905Z,20.25
2019-05-19T18:07:27.868Z,20.27
2019-05-19T18:09:59.119Z,20.29
2019-05-19T18:12:30.108Z,20.28
2019-05-19T18:15:03.354Z,20.08
2019-05-19T18:17:34.092Z,19.92
2019-05-19T18:20:07.300Z,19.90
2019-05-19T18:22:38.449Z,19.88
2019-05-19T18:25:09.501Z,19.90
2019-05-19T18:27:43.234Z,19.90
2019-05-19T18:30:13.768Z,19.87
2019-05-19T18:32:44.930Z,19.84
2019-05-19T18:35:15.907Z,19.80
2019-05-19T18:37:46.984Z,19.78
2019-05-19T18:40:18.154Z,19.74
2019-05-19T18:42:49.437Z,19.71
2019-05-19T18:45:20.796Z,19.61
2019-05-19T18:47:52.018Z,19.13
2019-05-19T18:50:23.164Z,18.75
2019-05-19T18:52:54.477Z,18.35
2019-05-19T18:55:26.294Z,17.97
2019-05-19T18:57:57.583Z,17.61
2019-05-19T19:00:36.902Z,17.22
2019-05-19T19:03:07.378Z,17.00
2019-05-19T19:05:38.715Z,16.79
2019-05-19T19:08:10.164Z,16.56
2019-05-19T19:10:41.416Z,16.35
2019-05-19T19:13:13.107Z,16.24
2019-05-19T19:15:45.160Z,15.96
2019-05-19T19:18:17.849Z,15.77
2019-05-19T19:20:52.285Z,15.70
2019-05-19T19:23:24.619Z,15.69
2019-05-19T19:25:57.342Z,15.68
2019-05-19T19:28:33.656Z,15.75
2019-05-19T19:31:05.113Z,15.70
2019-05-19T19:33:38.227Z,15.75
2019-05-19T19:36:10.895Z,15.77
2019-05-19T19:38:41.870Z,15.92
2019-05-19T19:41:14.368Z,15.86
2019-05-19T19:43:48.413Z,15.74
2019-05-19T19:46:19.557Z,15.60
2019-05-19T19:48:52.215Z,15.58
2019-05-19T19:51:23.112Z,15.52
2019-05-19T19:53:54.316Z,15.53
2019-05-19T19:56:25.323Z,15.56
2019-05-19T19:58:56.552Z,15.52
2019-05-19T20:01:27.445Z,15.47
2019-05-19T20:03:58.575Z,15.51
2019-05-19T20:06:29.499Z,15.55
2019-05-19T20:09:00.739Z,15.61
2019-05-19T20:11:31.819Z,15.70
2019-05-19T20:14:02.313Z,15.89
2019-05-19T20:16:33.796Z,16.00
2019-05-19T20:21:35.363Z,16.21
2019-05-19T20:24:06.656Z,16.12
2019-05-19T20:26:38.398Z,16.06
2019-05-19T20:29:09.414Z,16.02
2019-05-19T20:31:40.683Z,15.98
2019-05-19T20:34:11.985Z,15.94
2019-05-19T20:36:43.219Z,15.90
2019-05-19T20:39:14.945Z,15.89
2019-05-19T20:41:46.170Z,15.88
2019-05-19T20:44:17.154Z,15.81
2019-05-19T20:46:49.012Z,15.75
2019-05-19T20:49:20.361Z,15.71
2019-05-19T20:51:50.568Z,15.59
2019-05-19T20:54:21.716Z,15.50
2019-05-19T20:56:54.262Z,15.48
2019-05-19T20:59:25.304Z,15.45
2019-05-19T21:01:56.351Z,15.41
2019-05-19T21:04:27.456Z,15.33
2019-05-19T21:06:58.550Z,15.23
2019-05-19T21:09:29.631Z,15.15
2019-05-19T21:12:00.920Z,15.05
2019-05-19T21:14:32.115Z,14.98
2019-05-19T21:17:03.111Z,14.87
2019-05-19T21:19:33.107Z,14.81
2019-05-19T21:22:04.282Z,14.69
2019-05-19T21:24:35.238Z,14.60
2019-05-19T21:27:06.502Z,14.49
2019-05-19T21:29:37.436Z,14.44
2019-05-19T21:32:08.616Z,14.43
2019-05-19T21:34:39.584Z,14.39
2019-05-19T21:37:10.859Z,14.35
2019-05-19T21:39:41.915Z,14.26
2019-05-19T21:42:15.908Z,14.19
2019-05-19T21:44:46.911Z,14.11
2019-05-19T21:47:18.335Z,14.04
2019-05-19T21:49:49.331Z,14.11
2019-05-19T21:52:20.534Z,14.15
2019-05-19T21:54:51.782Z,14.26
2019-05-19T21:57:21.975Z,14.22
2019-05-19T21:59:53.323Z,14.18
2019-05-19T22:02:24.458Z,14.14
2019-05-19T22:04:55.709Z,14.10
2019-05-19T22:07:28.422Z,14.00
2019-05-19T22:09:59.602Z,13.95
2019-05-19T22:12:30.728Z,13.86
2019-05-19T22:15:02.058Z,13.80
2019-05-19T22:17:33.134Z,13.72
2019-05-19T22:20:06.358Z,13.70
2019-05-19T22:22:37.413Z,13.67
2019-05-19T22:25:08.748Z,13.66
2019-05-19T22:27:39.814Z,13.64
2019-05-19T22:30:10.132Z,13.60
2019-05-19T22:32:41.353Z,13.55
2019-05-19T22:35:14.017Z,13.53
2019-05-19T22:37:45.102Z,13.56
2019-05-19T22:40:16.268Z,13.59
2019-05-19T22:42:47.447Z,13.63
2019-05-19T22:45:18.504Z,13.62
2019-05-19T22:47:49.698Z,13.53
2019-05-19T22:50:20.761Z,13.47
2019-05-19T22:52:52.103Z,13.41
2019-05-19T22:55:23.184Z,13.39
2019-05-19T22:57:54.354Z,13.42
2019-05-19T23:00:26.564Z,13.38
2019-05-19T23:02:56.726Z,13.38
2019-05-19T23:05:27.900Z,13.35
2019-05-19T23:07:58.951Z,13.33
2019-05-19T23:10:30.407Z,13.28
2019-05-19T23:13:01.277Z,13.21
2019-05-19T23:15:32.628Z,13.14
2019-05-19T23:18:03.719Z,13.08
2019-05-19T23:20:34.887Z,12.99
2019-05-19T23:23:05.926Z,13.05
2019-05-19T23:25:37.311Z,13.04
2019-05-19T23:28:08.380Z,13.10
2019-05-19T23:30:39.552Z,13.12
2019-05-19T23:33:10.473Z,13.17
2019-05-19T23:35:40.647Z,13.23
2019-05-19T23:38:11.912Z,13.21
2019-05-19T23:40:43.378Z,13.07
2019-05-19T23:43:14.814Z,13.05
2019-05-19T23:45:45.896Z,13.10
2019-05-19T23:48:17.159Z,13.06
2019-05-19T23:50:48.171Z,13.08
2019-05-19T23:53:19.265Z,13.08
2019-05-19T23:55:50.278Z,13.05
2019-05-19T23:58:22.017Z,13.09
